Time;durP1;ratioP1;P1;durP2;ratioP2;P2;SDS_P1;SDS_P2;PMS_P1;PMS_P2;Temp;Humidity;BMP_temperature;BMP_pressure;BME280_temperature;BME280_humidity;BME280_pressure;Samples;Min_cycle;Max_cycle;Signal;HPM_P1;HPM_P2
2022/03/30 00:01:05;;;;;;;22.23;18.60;;;13.60;41.20;;;;;;5117862;28;20509;-47
2022/03/30 00:03:31;;;;;;;26.33;20.60;;;13.60;41.30;;;;;;5116490;28;20179;-46
2022/03/30 00:05:57;;;;;;;24.03;19.73;;;13.50;41.40;;;;;;5118126;28;20367;-46
2022/03/30 00:08:22;;;;;;;22.07;19.57;;;13.50;41.40;;;;;;5117681;28;20203;-46
2022/03/30 00:10:48;;;;;;;22.90;19.40;;;13.40;41.50;;;;;;5118105;28;20410;-47
2022/03/30 00:13:15;;;;;;;28.10;21.30;;;13.40;41.70;;;;;;5117315;28;20262;-46
2022/03/30 00:15:41;;;;;;;23.10;19.77;;;13.40;41.80;;;;;;5117604;28;20203;-47
2022/03/30 00:18:06;;;;;;;24.00;19.97;;;13.30;41.90;;;;;;5117921;28;20450;-47
2022/03/30 00:20:32;;;;;;;24.10;20.10;;;13.30;42.00;;;;;;5117825;28;20216;-46
2022/03/30 00:22:57;;;;;;;26.63;20.33;;;13.30;42.00;;;;;;5116964;28;20212;-46
2022/03/30 00:25:23;;;;;;;23.77;19.47;;;13.20;42.00;;;;;;5115538;28;20177;-46
2022/03/30 00:27:49;;;;;;;21.13;18.90;;;13.20;42.10;;;;;;5117052;28;20181;-47
2022/03/30 00:30:16;;;;;;;28.23;20.27;;;13.20;42.20;;;;;;5117182;28;20574;-46
2022/03/30 00:32:42;;;;;;;36.33;21.87;;;13.10;42.20;;;;;;5117969;28;20197;-46
2022/03/30 00:35:08;;;;;;;25.23;20.20;;;13.10;42.30;;;;;;5117050;28;20433;-46
2022/03/30 00:37:35;;;;;;;23.90;20.30;;;13.10;42.40;;;;;;5116773;28;20743;-47
2022/03/30 00:40:03;;;;;;;21.90;18.87;;;13.10;42.40;;;;;;5116775;28;20438;-46
2022/03/30 00:42:29;;;;;;;27.43;19.77;;;13.10;42.50;;;;;;5117142;28;20810;-46
2022/03/30 00:44:55;;;;;;;29.23;19.70;;;13.00;42.60;;;;;;5115148;28;20506;-47
2022/03/30 00:47:26;;;;;;;20.63;18.30;;;13.00;42.70;;;;;;5116602;28;20179;-46
2022/03/30 00:49:52;;;;;;;20.10;17.00;;;13.00;42.80;;;;;;5120571;28;20185;-46
2022/03/30 00:52:20;;;;;;;21.77;18.20;;;13.00;42.70;;;;;;5120349;28;20414;-47
2022/03/30 00:54:48;;;;;;;22.47;20.07;;;12.90;42.70;;;;;;5121530;28;20524;-46
2022/03/30 00:57:14;;;;;;;35.93;23.43;;;13.00;42.90;;;;;;5120712;28;20687;-47
2022/03/30 00:59:41;;;;;;;41.40;28.77;;;12.90;43.00;;;;;;5120865;28;20457;-46
2022/03/30 01:02:07;;;;;;;39.30;30.07;;;12.90;43.10;;;;;;5121719;28;20405;-47
2022/03/30 01:04:33;;;;;;;37.53;29.27;;;12.90;43.10;;;;;;5120374;28;20426;-46
2022/03/30 01:06:59;;;;;;;32.47;26.37;;;12.90;43.70;;;;;;5119678;28;20421;-46
2022/03/30 01:09:25;;;;;;;34.70;25.67;;;12.90;43.40;;;;;;5119876;28;20181;-46
2022/03/30 01:11:53;;;;;;;38.30;24.20;;;12.80;43.40;;;;;;5121279;28;20405;-46
2022/03/30 01:14:19;;;;;;;35.47;24.60;;;12.80;43.40;;;;;;5119882;28;20903;-47
2022/03/30 01:16:44;;;;;;;28.37;23.53;;;12.80;43.50;;;;;;5120960;28;20619;-47
2022/03/30 01:19:11;;;;;;;23.97;20.33;;;12.80;43.60;;;;;;5120695;28;20192;-47
2022/03/30 01:21:38;;;;;;;26.77;21.93;;;12.80;43.60;;;;;;5120575;27;20180;-46
2022/03/30 01:24:05;;;;;;;25.53;19.67;;;12.80;43.70;;;;;;5120678;28;20425;-46
2022/03/30 01:26:31;;;;;;;23.87;20.77;;;12.80;43.80;;;;;;5120959;28;20709;-47
2022/03/30 01:28:57;;;;;;;24.27;20.00;;;12.80;43.90;;;;;;5120410;28;20495;-46
2022/03/30 01:34:07;;;;;;;24.00;17.90;;;12.80;43.90;;;;;;5120348;28;20905;-46
2022/03/30 01:36:35;;;;;;;24.83;19.47;;;12.80;44.00;;;;;;5119675;28;20465;-46
2022/03/30 01:39:05;;;;;;;21.60;18.50;;;12.80;44.00;;;;;;5118871;28;20720;-47
2022/03/30 01:44:53;;;;;;;20.53;16.97;;;12.70;44.00;;;;;;5120255;28;20408;-46
2022/03/30 01:47:19;;;;;;;22.90;18.40;;;12.70;44.00;;;;;;5119628;28;20419;-47
2022/03/30 01:49:45;;;;;;;21.50;17.80;;;12.70;44.10;;;;;;5119800;28;20810;-46
2022/03/30 01:52:11;;;;;;;24.53;18.87;;;12.70;44.30;;;;;;5120770;28;20418;-47
2022/03/30 01:54:39;;;;;;;19.63;17.50;;;12.70;44.40;;;;;;5119589;28;20441;-46
2022/03/30 01:57:06;;;;;;;26.33;18.47;;;12.70;44.30;;;;;;5119733;28;20493;-49
2022/03/30 01:59:32;;;;;;;21.73;17.53;;;12.70;44.30;;;;;;5118420;28;20422;-47
2022/03/30 02:01:58;;;;;;;23.50;17.60;;;12.70;44.40;;;;;;5120560;28;20432;-47
2022/03/30 02:04:24;;;;;;;24.20;18.10;;;12.70;44.50;;;;;;5119746;28;20446;-46
2022/03/30 02:06:50;;;;;;;20.77;18.33;;;12.70;44.80;;;;;;5120172;28;20621;-47
2022/03/30 02:09:16;;;;;;;23.97;19.73;;;12.70;45.00;;;;;;5118178;28;20487;-46
2022/03/30 02:11:42;;;;;;;22.27;18.53;;;12.60;45.00;;;;;;5120593;28;20419;-46
2022/03/30 02:14:08;;;;;;;21.20;17.83;;;12.60;45.00;;;;;;5119550;28;20183;-46
2022/03/30 02:16:34;;;;;;;21.83;17.83;;;12.60;45.00;;;;;;5119834;28;20434;-46
2022/03/30 02:18:59;;;;;;;25.33;18.73;;;12.60;45.10;;;;;;5118888;28;20270;-47
2022/03/30 02:21:25;;;;;;;21.97;17.97;;;12.60;45.20;;;;;;5118872;28;20169;-46
2022/03/30 02:23:51;;;;;;;23.23;18.33;;;12.60;45.30;;;;;;5120067;28;20177;-46
2022/03/30 02:26:17;;;;;;;21.80;18.30;;;12.60;45.40;;;;;;5119594;28;20173;-44
2022/03/30 02:28:44;;;;;;;21.83;18.50;;;12.60;45.40;;;;;;5118927;28;20429;-45
2022/03/30 02:31:11;;;;;;;22.23;18.43;;;12.50;45.50;;;;;;5119650;28;20436;-44
2022/03/30 02:33:36;;;;;;;20.13;17.67;;;12.50;45.60;;;;;;5117985;28;20422;-44
2022/03/30 02:36:02;;;;;;;23.80;19.57;;;12.50;45.60;;;;;;5119073;28;20476;-44
2022/03/30 02:38:28;;;;;;;21.60;19.27;;;12.50;45.70;;;;;;5117323;28;20314;-47
2022/03/30 02:40:54;;;;;;;23.33;18.30;;;12.50;45.90;;;;;;5119341;28;20571;-47
2022/03/30 02:43:20;;;;;;;21.27;18.93;;;12.50;46.00;;;;;;5118555;28;20168;-47
2022/03/30 02:45:48;;;;;;;23.17;19.10;;;12.50;46.10;;;;;;5119265;27;20467;-47
2022/03/30 02:48:21;;;;;;;23.23;19.47;;;12.50;46.20;;;;;;5116511;28;20192;-47
2022/03/30 02:50:52;;;;;;;25.30;19.33;;;12.50;46.70;;;;;;5118193;28;20422;-47
2022/03/30 02:53:19;;;;;;;20.10;17.70;;;12.40;46.30;;;;;;5118476;28;20421;-47
2022/03/30 02:55:45;;;;;;;22.17;19.07;;;12.40;46.40;;;;;;5119107;28;20442;-46
2022/03/30 02:58:11;;;;;;;25.53;18.80;;;12.40;46.90;;;;;;5117005;28;20464;-47
2022/03/30 03:00:41;;;;;;;20.20;18.00;;;12.40;47.10;;;;;;5118687;28;20418;-47
2022/03/30 03:03:10;;;;;;;23.50;18.40;;;12.40;47.30;;;;;;5118278;28;20398;-46
2022/03/30 03:05:36;;;;;;;24.53;18.40;;;12.40;47.40;;;;;;5118533;28;20415;-47
2022/03/30 03:08:03;;;;;;;23.20;18.43;;;12.40;47.50;;;;;;5118424;28;20414;-47
2022/03/30 03:10:30;;;;;;;21.70;19.30;;;12.40;47.80;;;;;;5117533;28;20422;-47
2022/03/30 03:12:56;;;;;;;19.87;17.73;;;12.40;48.00;;;;;;5118358;28;20445;-46
2022/03/30 03:15:23;;;;;;;24.10;18.27;;;12.40;48.20;;;;;;5118229;28;20426;-47
2022/03/30 03:17:49;;;;;;;22.90;18.77;;;12.40;48.40;;;;;;5104790;28;20205;-47
2022/03/30 03:20:15;;;;;;;25.53;20.20;;;12.30;48.50;;;;;;5097750;28;20447;-47
2022/03/30 03:22:41;;;;;;;23.37;19.07;;;12.30;48.80;;;;;;5097950;28;20403;-45
2022/03/30 03:25:08;;;;;;;24.97;19.17;;;12.30;49.10;;;;;;5095983;28;20606;-45
2022/03/30 03:27:33;;;;;;;24.67;19.03;;;12.30;49.20;;;;;;5096905;28;20891;-45
2022/03/30 03:29:59;;;;;;;21.83;19.57;;;12.30;49.50;;;;;;5096224;28;20438;-45
2022/03/30 03:32:25;;;;;;;24.73;18.33;;;12.30;49.60;;;;;;5096658;28;20177;-45
2022/03/30 03:34:50;;;;;;;22.00;18.10;;;12.30;49.80;;;;;;5097460;28;20273;-45
2022/03/30 03:37:16;;;;;;;22.90;18.23;;;12.30;50.30;;;;;;5078952;28;20224;-45
2022/03/30 03:39:45;;;;;;;22.93;18.20;;;12.30;51.10;;;;;;5096669;28;20611;-44
2022/03/30 03:42:11;;;;;;;22.20;18.37;;;12.30;51.50;;;;;;5096250;28;20224;-45
2022/03/30 03:44:37;;;;;;;21.37;18.70;;;12.20;51.60;;;;;;5094712;28;20723;-45
2022/03/30 03:47:03;;;;;;;19.80;17.90;;;12.20;51.90;;;;;;5100938;28;20583;-45
2022/03/30 03:49:29;;;;;;;21.10;18.37;;;12.20;52.20;;;;;;5113486;28;20194;-45
2022/03/30 03:51:55;;;;;;;20.77;18.53;;;12.20;52.50;;;;;;5113444;28;20743;-45
2022/03/30 03:54:21;;;;;;;22.63;18.87;;;12.20;52.90;;;;;;5112908;28;20453;-45
2022/03/30 03:56:46;;;;;;;22.00;17.87;;;12.20;53.20;;;;;;5114139;28;20196;-45
2022/03/30 03:59:12;;;;;;;22.73;18.23;;;12.20;53.60;;;;;;5115322;28;20207;-45
2022/03/30 04:01:38;;;;;;;21.63;18.10;;;12.20;54.10;;;;;;5115220;28;20474;-45
2022/03/30 04:04:04;;;;;;;22.07;18.17;;;12.20;54.50;;;;;;5112766;28;20264;-47
2022/03/30 04:06:30;;;;;;;24.33;20.07;;;12.10;54.70;;;;;;5114648;28;20175;-47
2022/03/30 04:08:56;;;;;;;22.90;18.60;;;12.20;55.20;;;;;;5116310;28;20977;-48
2022/03/30 04:11:22;;;;;;;21.77;19.27;;;12.20;55.30;;;;;;5116238;28;20492;-47
2022/03/30 04:13:49;;;;;;;22.77;19.40;;;12.20;55.40;;;;;;5116366;28;20184;-47
2022/03/30 04:16:16;;;;;;;20.87;18.67;;;12.20;55.50;;;;;;5097928;28;20179;-47
2022/03/30 04:18:43;;;;;;;23.67;19.10;;;12.20;55.60;;;;;;5116079;28;20731;-48
2022/03/30 04:21:09;;;;;;;21.93;19.00;;;12.20;55.80;;;;;;5115953;28;20404;-47
2022/03/30 04:23:34;;;;;;;20.93;17.30;;;12.10;55.80;;;;;;5113620;28;20418;-47
2022/03/30 04:26:00;;;;;;;23.10;17.53;;;12.10;56.20;;;;;;5113503;28;20406;-47
2022/03/30 04:28:26;;;;;;;24.10;16.00;;;12.10;56.20;;;;;;5112275;28;20261;-48
2022/03/30 04:30:52;;;;;;;21.73;16.67;;;12.10;56.30;;;;;;5111907;28;20557;-48
2022/03/30 04:33:19;;;;;;;21.47;16.07;;;12.10;56.60;;;;;;5109350;28;20222;-48
2022/03/30 04:35:44;;;;;;;21.30;15.87;;;12.10;56.90;;;;;;5109463;28;20454;-47
2022/03/30 04:38:10;;;;;;;19.40;16.10;;;12.00;57.30;;;;;;5109016;28;20534;-47
2022/03/30 04:40:36;;;;;;;20.93;16.60;;;12.00;57.60;;;;;;5111935;28;20171;-47
2022/03/30 04:43:02;;;;;;;20.33;15.43;;;12.00;58.10;;;;;;5112788;28;20690;-48
2022/03/30 04:45:28;;;;;;;21.00;17.27;;;12.00;58.60;;;;;;5111426;28;20219;-47
2022/03/30 04:47:54;;;;;;;20.23;16.63;;;12.00;59.20;;;;;;5111609;28;20912;-47
2022/03/30 04:50:21;;;;;;;25.40;17.30;;;11.90;59.40;;;;;;5113519;28;20907;-48
2022/03/30 04:52:48;;;;;;;23.83;16.60;;;11.90;60.00;;;;;;5112062;28;20505;-48
2022/03/30 04:55:13;;;;;;;22.20;16.80;;;11.90;61.40;;;;;;5110980;28;20438;-47
2022/03/30 04:57:41;;;;;;;23.67;17.13;;;11.90;62.50;;;;;;5113642;28;20837;-47
2022/03/30 05:00:09;;;;;;;23.60;15.17;;;11.80;63.40;;;;;;5112542;28;20434;-47
2022/03/30 05:02:36;;;;;;;25.00;16.47;;;11.80;64.10;;;;;;5112303;28;20835;-48
2022/03/30 05:05:04;;;;;;;19.27;15.47;;;11.80;65.10;;;;;;5112293;28;20490;-48
2022/03/30 05:07:30;;;;;;;25.30;17.57;;;11.80;65.70;;;;;;5111122;28;20442;-48
2022/03/30 05:09:57;;;;;;;22.83;15.23;;;11.80;66.60;;;;;;5109576;28;20466;-48
2022/03/30 05:12:23;;;;;;;23.50;15.63;;;11.80;67.40;;;;;;5109478;28;20590;-48
2022/03/30 05:14:51;;;;;;;21.70;15.23;;;11.80;67.90;;;;;;5110550;28;20728;-48
2022/03/30 05:17:18;;;;;;;22.70;16.83;;;11.80;68.90;;;;;;5088057;28;20519;-48
2022/03/30 05:19:44;;;;;;;22.83;15.57;;;11.70;69.60;;;;;;5087640;28;20439;-48
2022/03/30 05:22:10;;;;;;;24.90;15.50;;;11.70;70.00;;;;;;5103905;28;20418;-47
2022/03/30 05:24:37;;;;;;;21.07;15.80;;;11.70;70.80;;;;;;5087402;28;20423;-47
2022/03/30 05:27:03;;;;;;;22.73;14.93;;;11.70;71.50;;;;;;5085191;28;20403;-48
2022/03/30 05:29:30;;;;;;;22.40;14.70;;;11.70;72.30;;;;;;5084489;28;20493;-48
2022/03/30 05:31:56;;;;;;;25.37;17.37;;;11.70;73.00;;;;;;5086281;28;20491;-40
2022/03/30 05:34:22;;;;;;;23.93;14.57;;;11.70;73.90;;;;;;5087755;28;20513;-41
2022/03/30 05:36:48;;;;;;;18.27;14.53;;;11.70;74.30;;;;;;5090690;28;20535;-42
2022/03/30 05:39:13;;;;;;;22.10;16.37;;;11.70;74.80;;;;;;5108909;28;20431;-40
2022/03/30 05:41:39;;;;;;;23.23;16.00;;;11.70;75.40;;;;;;5092607;28;20410;-41
2022/03/30 05:44:05;;;;;;;17.67;14.20;;;11.70;75.90;;;;;;5092500;28;20315;-40
2022/03/30 05:46:30;;;;;;;22.23;15.17;;;11.70;76.60;;;;;;5095590;28;20173;-40
2022/03/30 05:48:56;;;;;;;23.80;16.40;;;11.70;77.20;;;;;;5110504;28;20271;-40
2022/03/30 05:51:22;;;;;;;23.23;16.50;;;11.70;77.80;;;;;;5111353;28;20578;-42
2022/03/30 05:53:47;;;;;;;22.53;15.93;;;11.70;78.30;;;;;;5110675;28;20184;-40
2022/03/30 05:56:15;;;;;;;17.97;14.43;;;11.70;78.70;;;;;;5111319;28;20586;-41
2022/03/30 05:58:41;;;;;;;23.63;16.00;;;11.70;79.20;;;;;;5109071;28;20199;-41
2022/03/30 06:01:06;;;;;;;24.10;15.27;;;11.70;80.00;;;;;;5111024;28;20412;-39
2022/03/30 06:03:37;;;;;;;23.30;17.30;;;11.70;80.90;;;;;;5110670;28;20238;-40
2022/03/30 06:06:04;;;;;;;22.93;17.80;;;11.60;81.20;;;;;;5111216;28;20160;-40
2022/03/30 06:08:31;;;;;;;24.70;16.13;;;11.70;81.80;;;;;;5111544;28;20426;-40
2022/03/30 06:10:56;;;;;;;21.30;16.20;;;11.70;82.10;;;;;;5112006;28;20420;-41
2022/03/30 06:13:22;;;;;;;27.37;17.70;;;11.70;82.50;;;;;;5110891;28;20410;-41
2022/03/30 06:15:48;;;;;;;21.83;16.73;;;11.70;82.70;;;;;;5109546;28;20180;-40
2022/03/30 06:18:15;;;;;;;25.40;16.17;;;11.70;83.10;;;;;;5109399;28;20200;-40
2022/03/30 06:20:41;;;;;;;24.03;15.90;;;11.70;83.30;;;;;;5109882;28;20177;-41
2022/03/30 06:23:07;;;;;;;23.07;16.10;;;11.60;83.40;;;;;;5110487;28;20417;-41
2022/03/30 06:25:33;;;;;;;25.33;15.70;;;11.60;83.70;;;;;;5113469;28;20512;-40
2022/03/30 06:28:00;;;;;;;19.97;15.80;;;11.70;84.10;;;;;;5111602;28;20672;-40
2022/03/30 06:30:26;;;;;;;21.33;16.30;;;11.70;84.40;;;;;;5111303;28;20450;-40
2022/03/30 06:32:52;;;;;;;21.40;16.60;;;11.70;84.60;;;;;;5112733;28;20414;-43
2022/03/30 06:35:19;;;;;;;24.40;16.90;;;11.70;85.00;;;;;;5111468;28;20462;-42
2022/03/30 06:37:45;;;;;;;28.00;15.97;;;11.70;85.10;;;;;;5114005;28;20468;-40
2022/03/30 06:40:11;;;;;;;22.00;16.67;;;11.70;85.50;;;;;;5114648;28;20467;-40
2022/03/30 06:42:38;;;;;;;22.00;15.00;;;11.70;85.90;;;;;;5114329;28;20403;-40
2022/03/30 06:45:06;;;;;;;29.10;15.33;;;11.70;86.30;;;;;;5111867;27;20441;-41
2022/03/30 06:47:32;;;;;;;23.17;15.20;;;11.70;86.50;;;;;;5114275;28;20816;-42
2022/03/30 06:49:58;;;;;;;17.87;14.87;;;11.70;86.70;;;;;;5111193;28;20866;-40
2022/03/30 06:52:24;;;;;;;24.13;15.30;;;11.70;86.60;;;;;;5112187;28;20497;-43
2022/03/30 06:54:49;;;;;;;24.60;17.63;;;11.70;86.60;;;;;;5113731;28;20262;-41
2022/03/30 06:57:15;;;;;;;23.23;15.70;;;11.70;86.90;;;;;;5112195;28;20184;-39
2022/03/30 06:59:41;;;;;;;23.13;16.27;;;11.70;87.10;;;;;;5110904;28;20247;-40
2022/03/30 07:02:07;;;;;;;24.30;17.73;;;11.70;87.20;;;;;;5112384;28;20450;-40
2022/03/30 07:04:35;;;;;;;27.37;16.33;;;11.70;87.50;;;;;;5112644;28;20445;-40
2022/03/30 07:12:31;;;;;;;22.13;16.00;;;11.70;88.10;;;;;;5109905;28;20598;-41
2022/03/30 07:14:56;;;;;;;26.63;16.87;;;11.70;88.10;;;;;;5110917;28;20461;-41
2022/03/30 07:17:22;;;;;;;21.63;14.93;;;11.60;88.00;;;;;;5111488;28;20752;-40
2022/03/30 07:19:48;;;;;;;22.83;15.43;;;11.60;88.10;;;;;;5110342;28;20422;-41
2022/03/30 07:22:14;;;;;;;26.70;16.50;;;11.70;88.10;;;;;;5110155;28;20366;-41
2022/03/30 07:24:40;;;;;;;23.70;15.83;;;11.60;88.10;;;;;;5111144;27;20434;-40
2022/03/30 07:27:06;;;;;;;23.73;15.80;;;11.60;88.20;;;;;;5109589;28;20425;-43
2022/03/30 07:29:32;;;;;;;18.40;15.13;;;11.70;88.20;;;;;;5111080;28;20711;-41
2022/03/30 07:31:57;;;;;;;21.60;15.23;;;11.70;88.20;;;;;;5108878;28;20172;-38
2022/03/30 07:34:23;;;;;;;26.00;13.93;;;11.70;88.20;;;;;;5109995;28;20184;-40
2022/03/30 07:36:48;;;;;;;22.00;15.63;;;11.70;88.60;;;;;;5110510;28;20700;-39
2022/03/30 07:39:17;;;;;;;20.43;12.83;;;11.70;88.80;;;;;;5112724;28;20422;-39
2022/03/30 07:41:42;;;;;;;22.37;12.47;;;11.70;89.00;;;;;;5092694;28;20467;-42
2022/03/30 07:44:08;;;;;;;17.13;12.40;;;11.70;89.10;;;;;;5112732;28;20497;-39
2022/03/30 07:46:34;;;;;;;18.93;12.47;;;11.70;89.20;;;;;;5110388;28;20182;-40
2022/03/30 07:49:00;;;;;;;21.73;12.40;;;11.80;89.20;;;;;;5111554;28;20209;-42
2022/03/30 07:51:25;;;;;;;22.17;12.50;;;11.80;89.20;;;;;;5109766;28;20190;-39
2022/03/30 07:53:51;;;;;;;20.13;12.47;;;11.80;89.30;;;;;;5110209;28;20426;-39
2022/03/30 07:56:17;;;;;;;22.03;11.53;;;11.80;89.50;;;;;;5110230;28;20179;-39
2022/03/30 08:02:05;;;;;;;24.73;13.03;;;11.90;89.40;;;;;;5114173;28;20551;-40
2022/03/30 08:04:30;;;;;;;19.93;11.73;;;11.90;89.80;;;;;;5109833;28;20533;-40
2022/03/30 08:10:18;;;;;;;14.00;10.20;;;11.90;89.70;;;;;;5110917;28;20267;-40
2022/03/30 08:12:48;;;;;;;26.20;11.43;;;12.00;89.60;;;;;;5112602;28;20425;-39
2022/03/30 08:15:15;;;;;;;18.87;12.03;;;12.00;89.70;;;;;;5111502;28;20507;-40
2022/03/30 08:24:24;;;;;;;22.30;12.70;;;12.00;89.60;;;;;;5109642;28;20397;-39
2022/03/30 08:26:50;;;;;;;16.80;11.23;;;12.00;90.00;;;;;;5111252;28;20840;-40
2022/03/30 08:29:16;;;;;;;21.73;13.53;;;12.00;90.00;;;;;;5111599;28;20186;-40
2022/03/30 08:31:42;;;;;;;18.30;11.03;;;12.00;89.90;;;;;;5106935;28;20188;-39
2022/03/30 08:34:08;;;;;;;18.20;11.90;;;12.00;89.90;;;;;;5107059;28;20967;-40
2022/03/30 08:36:33;;;;;;;26.90;11.20;;;12.00;89.90;;;;;;5107889;28;20603;-40
2022/03/30 08:39:05;;;;;;;20.67;11.70;;;12.10;90.10;;;;;;5108181;28;20176;-39
2022/03/30 08:41:31;;;;;;;18.97;11.10;;;12.10;90.10;;;;;;5108375;28;20222;-39
2022/03/30 08:43:58;;;;;;;18.43;12.57;;;12.10;90.20;;;;;;5108449;28;20500;-41
2022/03/30 08:46:24;;;;;;;24.27;11.60;;;12.10;90.10;;;;;;5111178;28;20599;-41
2022/03/30 08:48:49;;;;;;;17.60;11.43;;;12.20;90.10;;;;;;5113221;28;20903;-39
2022/03/30 08:51:15;;;;;;;19.27;11.13;;;12.20;90.20;;;;;;5112143;28;20183;-39
2022/03/30 08:53:41;;;;;;;20.30;12.10;;;12.20;90.10;;;;;;5111215;28;20321;-42
2022/03/30 08:56:07;;;;;;;16.33;11.43;;;12.30;90.10;;;;;;5113138;28;20532;-39
2022/03/30 08:58:33;;;;;;;20.17;10.97;;;12.30;90.00;;;;;;5113343;28;20219;-38
2022/03/30 09:01:14;;;;;;;18.07;11.97;;;12.40;89.90;;;;;;5111881;28;20183;-40
2022/03/30 09:03:56;;;;;;;17.37;11.37;;;12.50;89.90;;;;;;5112791;28;21007;-42
2022/03/30 09:06:46;;;;;;;18.90;11.10;;;12.50;89.60;;;;;;5113463;28;20467;-40
2022/03/30 09:09:14;;;;;;;19.23;11.27;;;12.60;89.50;;;;;;5112924;28;20516;-39
2022/03/30 09:11:52;;;;;;;18.60;10.67;;;12.70;89.40;;;;;;5114978;28;20437;-41
2022/03/30 09:14:19;;;;;;;25.43;11.27;;;12.70;89.50;;;;;;5117519;27;20502;-39
2022/03/30 09:16:47;;;;;;;16.50;11.27;;;12.70;89.20;;;;;;5115916;27;20442;-40
2022/03/30 09:19:15;;;;;;;24.67;11.43;;;12.70;89.10;;;;;;5113794;28;20531;-39
2022/03/30 09:21:58;;;;;;;15.87;10.97;;;12.80;89.50;;;;;;5111079;28;20858;-41
2022/03/30 09:24:29;;;;;;;20.70;13.40;;;12.80;89.70;;;;;;5113133;28;20446;-40
2022/03/30 09:26:56;;;;;;;21.40;11.27;;;12.80;89.30;;;;;;5112012;28;20429;-41
2022/03/30 09:29:24;;;;;;;18.20;11.17;;;12.90;89.30;;;;;;5115619;28;20419;-40
2022/03/30 09:31:51;;;;;;;15.60;11.00;;;12.90;89.30;;;;;;5095826;28;20437;-40
2022/03/30 09:34:18;;;;;;;17.73;10.60;;;13.00;89.40;;;;;;5113596;28;20421;-41
2022/03/30 09:36:45;;;;;;;17.20;10.40;;;13.10;89.20;;;;;;5115101;28;20465;-41
2022/03/30 09:39:30;;;;;;;13.53;10.70;;;13.10;89.10;;;;;;5113474;28;20651;-41
2022/03/30 09:41:58;;;;;;;17.73;11.90;;;13.10;89.80;;;;;;5112531;28;20468;-39
2022/03/30 09:44:25;;;;;;;16.37;10.40;;;13.20;89.00;;;;;;5113226;28;20521;-44
2022/03/30 09:47:05;;;;;;;16.37;10.87;;;13.30;89.00;;;;;;5114406;28;20414;-40
2022/03/30 09:49:48;;;;;;;21.87;10.47;;;13.40;89.00;;;;;;5111105;28;20410;-41
2022/03/30 09:52:26;;;;;;;21.47;10.80;;;13.50;88.80;;;;;;5091704;28;20653;-40
2022/03/30 09:54:58;;;;;;;16.70;10.27;;;13.50;88.70;;;;;;5113425;28;20847;-39
2022/03/30 09:57:34;;;;;;;15.27;10.20;;;13.60;88.90;;;;;;5111728;28;20654;-41
2022/03/30 10:00:10;;;;;;;15.80;11.27;;;13.60;88.90;;;;;;5112091;28;20858;-41
2022/03/30 10:02:39;;;;;;;12.67;9.97;;;13.70;89.00;;;;;;5114212;27;20417;-43
2022/03/30 10:05:07;;;;;;;17.67;9.80;;;13.90;89.20;;;;;;5113684;28;20420;-41
2022/03/30 10:07:32;;;;;;;20.30;11.90;;;14.00;88.60;;;;;;5113054;28;20479;-40
2022/03/30 10:09:59;;;;;;;17.17;11.03;;;14.10;88.20;;;;;;5113489;28;20647;-43
2022/03/30 10:12:26;;;;;;;19.83;10.57;;;14.20;87.70;;;;;;5112916;28;20215;-41
2022/03/30 10:14:53;;;;;;;18.80;10.57;;;14.30;87.50;;;;;;5113469;28;20410;-40
2022/03/30 10:17:19;;;;;;;13.27;9.20;;;14.30;87.10;;;;;;5095696;28;20894;-40
2022/03/30 10:19:46;;;;;;;15.77;9.50;;;14.30;87.10;;;;;;5112276;28;20434;-40
2022/03/30 10:22:27;;;;;;;13.63;9.50;;;14.30;87.20;;;;;;5112713;28;20426;-42
2022/03/30 10:24:59;;;;;;;14.87;9.90;;;14.30;87.20;;;;;;5112795;28;20417;-40
2022/03/30 10:27:39;;;;;;;11.20;9.63;;;14.30;87.00;;;;;;5108295;28;20574;-40
2022/03/30 10:30:07;;;;;;;11.90;8.80;;;14.40;86.90;;;;;;5091621;28;20484;-40
2022/03/30 10:32:37;;;;;;;15.17;9.93;;;14.40;86.80;;;;;;5109215;28;20663;-40
2022/03/30 10:35:14;;;;;;;13.93;9.07;;;14.50;86.60;;;;;;5110190;28;20839;-39
2022/03/30 10:37:45;;;;;;;14.23;9.17;;;14.50;86.20;;;;;;5111569;28;20474;-41
2022/03/30 10:40:23;;;;;;;15.63;8.40;;;14.50;86.10;;;;;;5110861;28;20430;-40
2022/03/30 10:42:54;;;;;;;12.80;9.10;;;14.60;85.80;;;;;;5111597;28;20434;-40
2022/03/30 10:45:28;;;;;;;11.70;8.37;;;14.70;85.40;;;;;;5112443;28;20734;-40
2022/03/30 10:48:14;;;;;;;13.33;7.83;;;15.00;84.70;;;;;;5113182;28;20422;-41
2022/03/30 10:51:21;;;;;;;10.87;8.80;;;15.40;83.70;;;;;;5112322;28;21040;-40
2022/03/30 10:53:50;;;;;;;11.77;7.83;;;15.70;82.60;;;;;;5108002;28;20689;-42
2022/03/30 10:56:21;;;;;;;11.30;8.27;;;15.90;81.00;;;;;;5110978;28;20422;-41
2022/03/30 10:58:53;;;;;;;12.37;8.80;;;16.00;79.80;;;;;;5109728;28;20484;-40
2022/03/30 11:01:28;;;;;;;15.83;9.63;;;16.00;79.00;;;;;;5112034;28;20404;-41
2022/03/30 11:04:10;;;;;;;14.00;9.20;;;15.90;78.30;;;;;;5109413;28;20411;-40
2022/03/30 11:06:38;;;;;;;12.30;7.80;;;15.80;78.20;;;;;;5104097;28;20442;-41
2022/03/30 11:09:16;;;;;;;13.90;8.33;;;15.60;78.20;;;;;;5110602;27;20433;-42
2022/03/30 11:11:45;;;;;;;11.77;8.23;;;15.50;78.60;;;;;;5109020;28;20417;-40
2022/03/30 11:14:32;;;;;;;11.10;7.97;;;15.40;79.10;;;;;;5109215;28;20422;-42
2022/03/30 11:16:58;;;;;;;10.67;7.40;;;15.20;79.20;;;;;;5108042;28;20436;-42
2022/03/30 11:19:31;;;;;;;14.13;7.37;;;15.10;79.30;;;;;;5111809;28;20442;-40
2022/03/30 11:22:12;;;;;;;11.00;8.00;;;15.10;79.80;;;;;;5111726;28;20449;-43
2022/03/30 11:24:43;;;;;;;13.80;8.50;;;15.00;80.20;;;;;;5108336;28;20412;-40
2022/03/30 11:27:09;;;;;;;10.60;8.60;;;14.90;80.70;;;;;;5106592;28;20473;-39
2022/03/30 11:29:49;;;;;;;13.43;8.97;;;14.80;80.80;;;;;;5113034;28;20503;-39
2022/03/30 11:32:28;;;;;;;13.57;8.50;;;14.80;81.10;;;;;;5108827;28;20190;-42
2022/03/30 11:34:55;;;;;;;11.63;9.10;;;14.70;81.50;;;;;;5092140;28;20884;-39
2022/03/30 11:37:31;;;;;;;11.57;9.40;;;14.60;81.40;;;;;;5089737;28;20495;-41
2022/03/30 11:40:08;;;;;;;13.20;9.20;;;14.50;81.20;;;;;;5090659;28;20872;-41
2022/03/30 11:42:36;;;;;;;9.33;8.30;;;14.50;81.20;;;;;;5090638;28;20890;-39
2022/03/30 11:45:13;;;;;;;17.03;10.00;;;14.40;81.40;;;;;;5089991;28;20475;-40
2022/03/30 11:47:49;;;;;;;13.10;10.50;;;14.30;82.10;;;;;;5087665;28;20461;-41
2022/03/30 11:50:24;;;;;;;13.83;10.90;;;14.30;83.20;;;;;;5088007;28;20604;-40
2022/03/30 11:52:54;;;;;;;17.50;11.43;;;14.20;83.80;;;;;;5086857;28;20425;-40
2022/03/30 11:55:20;;;;;;;14.50;11.17;;;14.20;84.30;;;;;;5087377;28;20495;-40
2022/03/30 11:57:45;;;;;;;16.40;11.97;;;14.10;84.60;;;;;;5088664;28;20455;-40
2022/03/30 12:00:12;;;;;;;15.50;11.80;;;14.10;84.70;;;;;;5087200;28;20246;-42
2022/03/30 12:02:39;;;;;;;15.20;11.00;;;14.10;84.90;;;;;;5089795;28;20323;-40
2022/03/30 12:05:06;;;;;;;17.00;11.77;;;14.10;84.80;;;;;;5087787;28;20438;-40
2022/03/30 12:07:37;;;;;;;15.47;11.40;;;14.20;84.80;;;;;;5090324;28;20565;-40
2022/03/30 12:10:05;;;;;;;13.00;11.33;;;14.10;84.60;;;;;;5088680;28;20426;-40
2022/03/30 12:12:36;;;;;;;12.47;11.20;;;14.10;84.60;;;;;;5089086;28;20426;-40
2022/03/30 12:15:07;;;;;;;14.63;10.83;;;14.10;84.40;;;;;;5087029;28;20438;-43
2022/03/30 12:17:34;;;;;;;15.13;13.10;;;14.30;84.40;;;;;;5086938;28;20933;-40
2022/03/30 12:20:01;;;;;;;15.57;12.57;;;14.30;84.10;;;;;;5088372;28;20427;-40
2022/03/30 12:22:27;;;;;;;18.47;12.00;;;14.50;83.90;;;;;;5089171;28;20937;-40
2022/03/30 12:24:53;;;;;;;13.30;11.90;;;14.70;83.40;;;;;;5090776;28;20433;-40
2022/03/30 12:27:19;;;;;;;18.10;12.50;;;14.90;82.90;;;;;;5091041;28;20920;-40
2022/03/30 12:29:45;;;;;;;14.87;12.83;;;15.20;82.30;;;;;;5090868;28;20209;-41
2022/03/30 12:32:15;;;;;;;15.13;13.00;;;15.30;81.50;;;;;;5090440;28;20441;-42
2022/03/30 12:34:42;;;;;;;20.07;14.23;;;15.40;80.70;;;;;;5089866;28;20423;-42
2022/03/30 12:37:10;;;;;;;23.20;14.37;;;15.40;80.00;;;;;;5088211;28;20807;-39
2022/03/30 12:39:39;;;;;;;15.53;13.47;;;15.40;79.50;;;;;;5086686;28;20431;-41
2022/03/30 12:42:06;;;;;;;16.60;15.00;;;15.20;79.20;;;;;;5090317;28;20872;-41
2022/03/30 12:44:31;;;;;;;17.13;14.80;;;15.10;79.30;;;;;;5092860;28;20755;-42
2022/03/30 12:46:58;;;;;;;16.70;14.97;;;14.90;79.60;;;;;;5095419;28;20440;-41
2022/03/30 12:49:38;;;;;;;12.63;11.50;;;14.80;81.00;;;;;;5094820;28;20211;-40
2022/03/30 12:52:09;;;;;;;8.40;7.40;;;14.60;82.30;;;;;;5094064;28;20402;-40
2022/03/30 12:54:35;;;;;;;8.13;7.43;;;14.40;82.80;;;;;;5094333;28;20431;-41
2022/03/30 12:57:01;;;;;;;7.10;6.40;;;14.30;83.30;;;;;;5095274;28;20932;-40